sensor_id;sensor_type;location;lat;lon;timestamp;temperature;humidity
27647;DHT22;42229;51.230;6.240;2023-01-08T00:00:51;12.50;99.90
27647;DHT22;42229;51.230;6.240;2023-01-08T00:03:17;12.50;99.90
27647;DHT22;42229;51.230;6.240;2023-01-08T00:05:43;12.50;99.90
27647;DHT22;42229;51.230;6.240;2023-01-08T00:08:09;12.60;99.90
27647;DHT22;42229;51.230;6.240;2023-01-08T00:10:36;12.60;99.90
27647;DHT22;42229;51.230;6.240;2023-01-08T00:13:03;12.60;99.90
27647;DHT22;42229;51.230;6.240;2023-01-08T00:15:30;12.50;99.90
27647;DHT22;42229;51.230;6.240;2023-01-08T00:17:57;12.60;99.90
27647;DHT22;42229;51.230;6.240;2023-01-08T00:20:23;12.50;99.90
27647;DHT22;42229;51.230;6.240;2023-01-08T00:22:50;12.60;99.90
27647;DHT22;42229;51.230;6.240;2023-01-08T00:25:17;12.60;99.90
27647;DHT22;42229;51.230;6.240;2023-01-08T00:27:44;12.60;99.90
27647;DHT22;42229;51.230;6.240;2023-01-08T00:30:11;12.60;99.90
27647;DHT22;42229;51.230;6.240;2023-01-08T00:32:38;12.60;99.90
27647;DHT22;42229;51.230;6.240;2023-01-08T00:35:04;12.70;99.90
27647;DHT22;42229;51.230;6.240;2023-01-08T00:37:31;12.60;99.90
27647;DHT22;42229;51.230;6.240;2023-01-08T00:39:57;12.70;99.90
27647;DHT22;42229;51.230;6.240;2023-01-08T00:42:23;12.70;99.90
27647;DHT22;42229;51.230;6.240;2023-01-08T00:44:50;12.70;99.90
27647;DHT22;42229;51.230;6.240;2023-01-08T00:47:16;12.60;99.90
27647;DHT22;42229;51.230;6.240;2023-01-08T00:49:42;12.70;99.90
27647;DHT22;42229;51.230;6.240;2023-01-08T00:52:08;12.60;99.90
27647;DHT22;42229;51.230;6.240;2023-01-08T00:54:35;12.60;99.90
27647;DHT22;42229;51.230;6.240;2023-01-08T00:57:01;12.60;99.90
27647;DHT22;42229;51.230;6.240;2023-01-08T00:59:27;12.60;99.90
27647;DHT22;42229;51.230;6.240;2023-01-08T01:01:53;12.60;99.90
27647;DHT22;42229;51.230;6.240;2023-01-08T01:04:20;12.60;99.90
27647;DHT22;42229;51.230;6.240;2023-01-08T01:06:46;12.60;99.90
27647;DHT22;42229;51.230;6.240;2023-01-08T01:09:12;12.60;99.90
27647;DHT22;42229;51.230;6.240;2023-01-08T01:11:38;12.60;99.90
27647;DHT22;42229;51.230;6.240;2023-01-08T01:14:04;12.60;99.90
27647;DHT22;42229;51.230;6.240;2023-01-08T01:16:31;12.60;99.90
27647;DHT22;42229;51.230;6.240;2023-01-08T01:18:57;12.60;99.90
27647;DHT22;42229;51.230;6.240;2023-01-08T01:21:24;12.60;99.90
27647;DHT22;42229;51.230;6.240;2023-01-08T01:23:52;12.60;99.90
27647;DHT22;42229;51.230;6.240;2023-01-08T01:26:20;12.60;99.90
27647;DHT22;42229;51.230;6.240;2023-01-08T01:28:47;12.60;99.90
27647;DHT22;42229;51.230;6.240;2023-01-08T01:31:15;12.60;99.90
27647;DHT22;42229;51.230;6.240;2023-01-08T01:33:41;12.60;99.90
27647;DHT22;42229;51.230;6.240;2023-01-08T01:36:08;12.60;99.90
27647;DHT22;42229;51.230;6.240;2023-01-08T01:38:36;12.60;99.90
27647;DHT22;42229;51.230;6.240;2023-01-08T01:41:03;12.60;99.90
27647;DHT22;42229;51.230;6.240;2023-01-08T01:43:33;12.60;99.90
27647;DHT22;42229;51.230;6.240;2023-01-08T01:46:05;12.70;99.90
27647;DHT22;42229;51.230;6.240;2023-01-08T01:49:02;12.70;99.90
27647;DHT22;42229;51.230;6.240;2023-01-08T01:51:32;12.70;99.90
27647;DHT22;42229;51.230;6.240;2023-01-08T01:54:00;12.70;99.90
27647;DHT22;42229;51.230;6.240;2023-01-08T01:56:27;12.70;99.90
27647;DHT22;42229;51.230;6.240;2023-01-08T01:58:54;12.80;99.90
27647;DHT22;42229;51.230;6.240;2023-01-08T02:01:20;12.80;99.90
27647;DHT22;42229;51.230;6.240;2023-01-08T02:03:47;12.80;99.90
27647;DHT22;42229;51.230;6.240;2023-01-08T02:06:27;12.80;99.90
27647;DHT22;42229;51.230;6.240;2023-01-08T02:14:37;12.90;99.90
27647;DHT22;42229;51.230;6.240;2023-01-08T02:17:13;12.90;99.90
27647;DHT22;42229;51.230;6.240;2023-01-08T02:19:42;12.90;99.90
27647;DHT22;42229;51.230;6.240;2023-01-08T02:22:29;12.90;99.90
27647;DHT22;42229;51.230;6.240;2023-01-08T02:27:47;13.00;99.90
27647;DHT22;42229;51.230;6.240;2023-01-08T02:30:15;13.00;99.90
27647;DHT22;42229;51.230;6.240;2023-01-08T02:32:42;13.00;99.90
27647;DHT22;42229;51.230;6.240;2023-01-08T02:35:09;12.90;99.90
27647;DHT22;42229;51.230;6.240;2023-01-08T02:37:36;13.00;99.90
27647;DHT22;42229;51.230;6.240;2023-01-08T02:42:44;13.00;99.90
27647;DHT22;42229;51.230;6.240;2023-01-08T02:51:06;12.90;99.90
27647;DHT22;42229;51.230;6.240;2023-01-08T02:53:39;12.90;99.90
27647;DHT22;42229;51.230;6.240;2023-01-08T02:56:10;12.90;99.90
27647;DHT22;42229;51.230;6.240;2023-01-08T02:58:37;12.90;99.90
27647;DHT22;42229;51.230;6.240;2023-01-08T03:01:06;12.90;99.90
27647;DHT22;42229;51.230;6.240;2023-01-08T03:03:34;12.90;99.90
27647;DHT22;42229;51.230;6.240;2023-01-08T03:06:06;12.90;99.90
27647;DHT22;42229;51.230;6.240;2023-01-08T03:08:35;12.90;99.90
27647;DHT22;42229;51.230;6.240;2023-01-08T03:11:07;12.80;99.90
27647;DHT22;42229;51.230;6.240;2023-01-08T03:13:39;12.80;99.90
27647;DHT22;42229;51.230;6.240;2023-01-08T03:16:17;12.80;99.90
27647;DHT22;42229;51.230;6.240;2023-01-08T03:18:46;12.80;99.90
27647;DHT22;42229;51.230;6.240;2023-01-08T03:21:14;12.80;99.90
27647;DHT22;42229;51.230;6.240;2023-01-08T03:23:41;12.70;99.90
27647;DHT22;42229;51.230;6.240;2023-01-08T03:26:09;12.80;99.90
27647;DHT22;42229;51.230;6.240;2023-01-08T03:28:40;12.70;99.90
27647;DHT22;42229;51.230;6.240;2023-01-08T03:31:10;12.70;99.90
27647;DHT22;42229;51.230;6.240;2023-01-08T03:33:39;12.70;99.90
27647;DHT22;42229;51.230;6.240;2023-01-08T03:36:07;12.70;99.90
27647;DHT22;42229;51.230;6.240;2023-01-08T03:38:39;12.70;99.90
27647;DHT22;42229;51.230;6.240;2023-01-08T03:41:10;12.70;99.90
27647;DHT22;42229;51.230;6.240;2023-01-08T03:43:39;12.70;99.90
27647;DHT22;42229;51.230;6.240;2023-01-08T03:46:10;12.70;99.90
27647;DHT22;42229;51.230;6.240;2023-01-08T03:48:40;12.70;99.90
27647;DHT22;42229;51.230;6.240;2023-01-08T03:51:07;12.70;99.90
27647;DHT22;42229;51.230;6.240;2023-01-08T03:53:34;12.70;99.90
27647;DHT22;42229;51.230;6.240;2023-01-08T03:56:00;12.70;99.90
27647;DHT22;42229;51.230;6.240;2023-01-08T03:58:27;12.70;99.90
27647;DHT22;42229;51.230;6.240;2023-01-08T04:00:53;12.70;99.90
27647;DHT22;42229;51.230;6.240;2023-01-08T04:03:19;12.70;99.90
27647;DHT22;42229;51.230;6.240;2023-01-08T04:05:45;12.80;99.90
27647;DHT22;42229;51.230;6.240;2023-01-08T04:08:11;12.70;99.90
27647;DHT22;42229;51.230;6.240;2023-01-08T04:10:38;12.70;99.90
27647;DHT22;42229;51.230;6.240;2023-01-08T04:13:04;12.80;99.90
27647;DHT22;42229;51.230;6.240;2023-01-08T04:15:31;12.80;99.90
27647;DHT22;42229;51.230;6.240;2023-01-08T04:17:58;12.70;99.90
27647;DHT22;42229;51.230;6.240;2023-01-08T04:20:24;12.70;99.90
27647;DHT22;42229;51.230;6.240;2023-01-08T04:22:50;12.70;99.90
27647;DHT22;42229;51.230;6.240;2023-01-08T04:25:17;12.70;99.90
27647;DHT22;42229;51.230;6.240;2023-01-08T04:27:44;12.70;99.90
27647;DHT22;42229;51.230;6.240;2023-01-08T04:30:10;12.70;99.90
27647;DHT22;42229;51.230;6.240;2023-01-08T04:32:36;12.60;99.90
27647;DHT22;42229;51.230;6.240;2023-01-08T04:35:03;12.60;99.90
27647;DHT22;42229;51.230;6.240;2023-01-08T04:37:29;12.60;99.90
27647;DHT22;42229;51.230;6.240;2023-01-08T04:39:55;12.60;99.90
27647;DHT22;42229;51.230;6.240;2023-01-08T04:42:21;12.60;99.90
27647;DHT22;42229;51.230;6.240;2023-01-08T04:44:48;12.60;99.90
27647;DHT22;42229;51.230;6.240;2023-01-08T04:47:14;12.60;99.90
27647;DHT22;42229;51.230;6.240;2023-01-08T04:49:40;12.60;99.90
27647;DHT22;42229;51.230;6.240;2023-01-08T04:52:06;12.60;99.90
27647;DHT22;42229;51.230;6.240;2023-01-08T04:54:33;12.60;99.90
27647;DHT22;42229;51.230;6.240;2023-01-08T04:56:59;12.70;99.90
27647;DHT22;42229;51.230;6.240;2023-01-08T04:59:25;12.70;99.90
27647;DHT22;42229;51.230;6.240;2023-01-08T05:01:51;12.70;99.90
27647;DHT22;42229;51.230;6.240;2023-01-08T05:04:17;12.60;99.90
27647;DHT22;42229;51.230;6.240;2023-01-08T05:06:45;12.60;99.90
27647;DHT22;42229;51.230;6.240;2023-01-08T05:09:12;12.70;99.90
27647;DHT22;42229;51.230;6.240;2023-01-08T05:11:38;12.70;99.90
27647;DHT22;42229;51.230;6.240;2023-01-08T05:14:04;12.60;99.90
27647;DHT22;42229;51.230;6.240;2023-01-08T05:16:30;12.70;99.90
27647;DHT22;42229;51.230;6.240;2023-01-08T05:18:57;12.60;99.90
27647;DHT22;42229;51.230;6.240;2023-01-08T05:21:23;12.60;99.90
27647;DHT22;42229;51.230;6.240;2023-01-08T05:23:49;12.70;99.90
27647;DHT22;42229;51.230;6.240;2023-01-08T05:26:16;12.70;99.90
27647;DHT22;42229;51.230;6.240;2023-01-08T05:28:44;12.70;99.90
27647;DHT22;42229;51.230;6.240;2023-01-08T05:31:10;12.60;99.90
27647;DHT22;42229;51.230;6.240;2023-01-08T05:33:37;12.50;99.90
27647;DHT22;42229;51.230;6.240;2023-01-08T05:36:04;12.40;99.90
27647;DHT22;42229;51.230;6.240;2023-01-08T05:38:31;12.30;99.90
27647;DHT22;42229;51.230;6.240;2023-01-08T05:40:57;12.10;99.90
27647;DHT22;42229;51.230;6.240;2023-01-08T05:43:24;12.00;99.90
27647;DHT22;42229;51.230;6.240;2023-01-08T05:45:50;11.80;99.90
27647;DHT22;42229;51.230;6.240;2023-01-08T05:48:16;11.70;99.90
27647;DHT22;42229;51.230;6.240;2023-01-08T05:50:42;11.60;99.90
27647;DHT22;42229;51.230;6.240;2023-01-08T05:53:09;11.50;99.90
27647;DHT22;42229;51.230;6.240;2023-01-08T05:55:35;11.30;99.90
27647;DHT22;42229;51.230;6.240;2023-01-08T05:58:02;11.20;99.90
27647;DHT22;42229;51.230;6.240;2023-01-08T06:00:29;11.00;99.90
27647;DHT22;42229;51.230;6.240;2023-01-08T06:02:55;11.00;99.90
27647;DHT22;42229;51.230;6.240;2023-01-08T06:05:21;11.00;99.90
27647;DHT22;42229;51.230;6.240;2023-01-08T06:07:48;10.90;99.90
27647;DHT22;42229;51.230;6.240;2023-01-08T06:10:14;10.80;99.90
27647;DHT22;42229;51.230;6.240;2023-01-08T06:12:40;10.60;99.90
27647;DHT22;42229;51.230;6.240;2023-01-08T06:15:06;10.60;99.90
27647;DHT22;42229;51.230;6.240;2023-01-08T06:17:33;10.60;99.90
27647;DHT22;42229;51.230;6.240;2023-01-08T06:20:00;10.40;99.90
27647;DHT22;42229;51.230;6.240;2023-01-08T06:22:26;10.40;99.90
27647;DHT22;42229;51.230;6.240;2023-01-08T06:24:53;10.40;99.90
27647;DHT22;42229;51.230;6.240;2023-01-08T06:27:19;10.30;99.90
27647;DHT22;42229;51.230;6.240;2023-01-08T06:29:45;10.20;99.90
27647;DHT22;42229;51.230;6.240;2023-01-08T06:32:11;10.20;99.90
27647;DHT22;42229;51.230;6.240;2023-01-08T06:34:38;10.20;99.90
27647;DHT22;42229;51.230;6.240;2023-01-08T06:37:04;10.20;99.90
27647;DHT22;42229;51.230;6.240;2023-01-08T06:39:30;10.10;99.90
27647;DHT22;42229;51.230;6.240;2023-01-08T06:41:56;10.10;99.90
27647;DHT22;42229;51.230;6.240;2023-01-08T06:44:22;10.00;99.90
27647;DHT22;42229;51.230;6.240;2023-01-08T06:46:49;10.00;99.90
27647;DHT22;42229;51.230;6.240;2023-01-08T06:49:15;10.00;99.90
27647;DHT22;42229;51.230;6.240;2023-01-08T06:51:42;10.00;99.90
27647;DHT22;42229;51.230;6.240;2023-01-08T06:54:08;9.90;99.90
27647;DHT22;42229;51.230;6.240;2023-01-08T06:56:34;9.90;99.90
27647;DHT22;42229;51.230;6.240;2023-01-08T06:59:01;9.90;99.90
27647;DHT22;42229;51.230;6.240;2023-01-08T07:01:27;9.90;99.90
27647;DHT22;42229;51.230;6.240;2023-01-08T07:03:53;9.90;99.90
27647;DHT22;42229;51.230;6.240;2023-01-08T07:06:21;9.80;99.90
27647;DHT22;42229;51.230;6.240;2023-01-08T07:08:48;9.80;99.90
27647;DHT22;42229;51.230;6.240;2023-01-08T07:11:14;9.80;99.90
27647;DHT22;42229;51.230;6.240;2023-01-08T07:13:41;9.80;99.90
27647;DHT22;42229;51.230;6.240;2023-01-08T07:16:08;9.80;99.90
27647;DHT22;42229;51.230;6.240;2023-01-08T07:18:36;9.80;99.90
27647;DHT22;42229;51.230;6.240;2023-01-08T07:21:02;9.80;99.90
27647;DHT22;42229;51.230;6.240;2023-01-08T07:23:29;9.80;99.90
27647;DHT22;42229;51.230;6.240;2023-01-08T07:25:59;9.70;99.90
27647;DHT22;42229;51.230;6.240;2023-01-08T07:28:26;9.70;99.90
27647;DHT22;42229;51.230;6.240;2023-01-08T07:30:53;9.70;99.90
27647;DHT22;42229;51.230;6.240;2023-01-08T07:33:19;9.60;99.90
27647;DHT22;42229;51.230;6.240;2023-01-08T07:35:52;9.60;99.90
27647;DHT22;42229;51.230;6.240;2023-01-08T07:38:19;9.50;99.90
27647;DHT22;42229;51.230;6.240;2023-01-08T07:40:45;9.50;99.90
27647;DHT22;42229;51.230;6.240;2023-01-08T07:43:11;9.50;99.90
27647;DHT22;42229;51.230;6.240;2023-01-08T07:45:38;9.40;99.90
27647;DHT22;42229;51.230;6.240;2023-01-08T07:48:04;9.40;99.90
27647;DHT22;42229;51.230;6.240;2023-01-08T07:50:31;9.30;99.90
27647;DHT22;42229;51.230;6.240;2023-01-08T07:52:58;9.20;99.90
27647;DHT22;42229;51.230;6.240;2023-01-08T07:55:25;9.30;99.90
27647;DHT22;42229;51.230;6.240;2023-01-08T07:57:52;9.20;99.90
27647;DHT22;42229;51.230;6.240;2023-01-08T08:00:18;9.10;99.90
27647;DHT22;42229;51.230;6.240;2023-01-08T08:02:44;9.10;99.90
27647;DHT22;42229;51.230;6.240;2023-01-08T08:05:11;9.10;99.90
27647;DHT22;42229;51.230;6.240;2023-01-08T08:07:37;9.00;99.90
27647;DHT22;42229;51.230;6.240;2023-01-08T08:10:03;9.00;99.90
27647;DHT22;42229;51.230;6.240;2023-01-08T08:12:30;9.00;99.90
27647;DHT22;42229;51.230;6.240;2023-01-08T08:14:56;9.00;99.90
27647;DHT22;42229;51.230;6.240;2023-01-08T08:17:23;9.00;99.90
27647;DHT22;42229;51.230;6.240;2023-01-08T08:19:49;9.00;99.90
27647;DHT22;42229;51.230;6.240;2023-01-08T08:22:15;9.00;99.90
27647;DHT22;42229;51.230;6.240;2023-01-08T08:24:41;9.00;99.90
27647;DHT22;42229;51.230;6.240;2023-01-08T08:27:08;9.00;99.90
27647;DHT22;42229;51.230;6.240;2023-01-08T08:29:34;9.00;99.90
27647;DHT22;42229;51.230;6.240;2023-01-08T08:32:00;9.00;99.90
27647;DHT22;42229;51.230;6.240;2023-01-08T08:34:26;9.10;99.90
27647;DHT22;42229;51.230;6.240;2023-01-08T08:36:52;9.10;99.90
27647;DHT22;42229;51.230;6.240;2023-01-08T08:39:19;9.10;99.90
27647;DHT22;42229;51.230;6.240;2023-01-08T08:41:45;9.10;99.90
27647;DHT22;42229;51.230;6.240;2023-01-08T08:44:11;9.10;99.90
27647;DHT22;42229;51.230;6.240;2023-01-08T08:46:37;9.10;99.90
27647;DHT22;42229;51.230;6.240;2023-01-08T08:49:03;9.20;99.90
27647;DHT22;42229;51.230;6.240;2023-01-08T08:51:30;9.20;99.90
27647;DHT22;42229;51.230;6.240;2023-01-08T08:53:56;9.20;99.90
27647;DHT22;42229;51.230;6.240;2023-01-08T08:56:22;9.30;99.90
27647;DHT22;42229;51.230;6.240;2023-01-08T08:58:48;9.30;99.90
27647;DHT22;42229;51.230;6.240;2023-01-08T09:01:16;9.30;99.90
27647;DHT22;42229;51.230;6.240;2023-01-08T09:03:42;9.40;99.90
27647;DHT22;42229;51.230;6.240;2023-01-08T09:06:12;9.50;99.90
27647;DHT22;42229;51.230;6.240;2023-01-08T09:08:39;9.60;99.90
27647;DHT22;42229;51.230;6.240;2023-01-08T09:11:05;9.70;99.90
27647;DHT22;42229;51.230;6.240;2023-01-08T09:13:31;9.80;99.90
27647;DHT22;42229;51.230;6.240;2023-01-08T09:15:58;9.90;99.90
27647;DHT22;42229;51.230;6.240;2023-01-08T09:18:25;10.10;99.90
27647;DHT22;42229;51.230;6.240;2023-01-08T09:20:51;10.20;99.90
27647;DHT22;42229;51.230;6.240;2023-01-08T09:23:17;10.40;99.90
27647;DHT22;42229;51.230;6.240;2023-01-08T09:25:44;10.50;99.90
27647;DHT22;42229;51.230;6.240;2023-01-08T09:28:10;10.60;99.90
27647;DHT22;42229;51.230;6.240;2023-01-08T09:30:37;10.70;99.90
27647;DHT22;42229;51.230;6.240;2023-01-08T09:33:04;10.80;99.90
27647;DHT22;42229;51.230;6.240;2023-01-08T09:35:31;10.90;99.90
27647;DHT22;42229;51.230;6.240;2023-01-08T09:37:58;11.00;99.90
27647;DHT22;42229;51.230;6.240;2023-01-08T09:40:30;11.10;99.90
27647;DHT22;42229;51.230;6.240;2023-01-08T09:43:00;11.10;99.90
27647;DHT22;42229;51.230;6.240;2023-01-08T09:45:27;11.20;99.90
27647;DHT22;42229;51.230;6.240;2023-01-08T09:47:59;11.30;99.90
27647;DHT22;42229;51.230;6.240;2023-01-08T09:50:28;11.30;99.90
27647;DHT22;42229;51.230;6.240;2023-01-08T09:52:55;11.40;99.90
27647;DHT22;42229;51.230;6.240;2023-01-08T09:55:21;11.40;99.90
27647;DHT22;42229;51.230;6.240;2023-01-08T09:57:47;11.50;99.90
27647;DHT22;42229;51.230;6.240;2023-01-08T10:00:15;11.60;99.90
27647;DHT22;42229;51.230;6.240;2023-01-08T10:02:44;11.60;99.90
27647;DHT22;42229;51.230;6.240;2023-01-08T10:05:12;11.80;99.90
27647;DHT22;42229;51.230;6.240;2023-01-08T10:07:43;11.80;99.90
27647;DHT22;42229;51.230;6.240;2023-01-08T10:10:25;11.90;99.90
27647;DHT22;42229;51.230;6.240;2023-01-08T10:12:54;12.00;99.90
27647;DHT22;42229;51.230;6.240;2023-01-08T10:15:21;12.10;99.90
27647;DHT22;42229;51.230;6.240;2023-01-08T10:17:50;12.20;99.90
27647;DHT22;42229;51.230;6.240;2023-01-08T10:20:25;12.30;99.90
27647;DHT22;42229;51.230;6.240;2023-01-08T10:22:52;12.50;99.90
27647;DHT22;42229;51.230;6.240;2023-01-08T10:25:23;12.60;99.90
27647;DHT22;42229;51.230;6.240;2023-01-08T10:27:51;12.60;99.90
27647;DHT22;42229;51.230;6.240;2023-01-08T10:30:20;12.70;99.90
27647;DHT22;42229;51.230;6.240;2023-01-08T10:32:52;12.80;99.90
27647;DHT22;42229;51.230;6.240;2023-01-08T10:35:21;12.80;99.90
27647;DHT22;42229;51.230;6.240;2023-01-08T10:37:49;12.80;99.90
27647;DHT22;42229;51.230;6.240;2023-01-08T10:40:21;12.90;99.90
27647;DHT22;42229;51.230;6.240;2023-01-08T10:42:50;12.90;99.90
27647;DHT22;42229;51.230;6.240;2023-01-08T10:45:26;13.00;99.90
27647;DHT22;42229;51.230;6.240;2023-01-08T10:47:54;12.90;99.90
27647;DHT22;42229;51.230;6.240;2023-01-08T10:50:23;13.00;99.90
27647;DHT22;42229;51.230;6.240;2023-01-08T10:52:59;12.90;99.90
27647;DHT22;42229;51.230;6.240;2023-01-08T10:55:27;12.90;99.90
27647;DHT22;42229;51.230;6.240;2023-01-08T10:58:39;12.90;99.90
27647;DHT22;42229;51.230;6.240;2023-01-08T11:00:48;12.90;99.90
27647;DHT22;42229;51.230;6.240;2023-01-08T11:03:19;12.80;99.90
27647;DHT22;42229;51.230;6.240;2023-01-08T11:05:50;12.70;99.90
27647;DHT22;42229;51.230;6.240;2023-01-08T11:08:17;12.60;99.90
27647;DHT22;42229;51.230;6.240;2023-01-08T11:10:54;12.50;99.90
27647;DHT22;42229;51.230;6.240;2023-01-08T11:13:22;12.50;99.90
27647;DHT22;42229;51.230;6.240;2023-01-08T11:18:30;12.40;99.90
27647;DHT22;42229;51.230;6.240;2023-01-08T11:21:08;12.30;99.90
27647;DHT22;42229;51.230;6.240;2023-01-08T11:23:35;12.30;99.90
27647;DHT22;42229;51.230;6.240;2023-01-08T11:26:13;12.40;99.90
27647;DHT22;42229;51.230;6.240;2023-01-08T11:28:49;12.30;99.90
27647;DHT22;42229;51.230;6.240;2023-01-08T11:31:21;12.20;99.90
27647;DHT22;42229;51.230;6.240;2023-01-08T11:33:51;12.30;99.90
27647;DHT22;42229;51.230;6.240;2023-01-08T11:36:26;12.30;99.90
27647;DHT22;42229;51.230;6.240;2023-01-08T11:38:57;12.20;99.90
27647;DHT22;42229;51.230;6.240;2023-01-08T11:44:25;12.30;99.90
27647;DHT22;42229;51.230;6.240;2023-01-08T11:49:47;12.60;99.90
27647;DHT22;42229;51.230;6.240;2023-01-08T11:55:14;13.00;99.90
27647;DHT22;42229;51.230;6.240;2023-01-08T12:03:20;13.60;99.90
27647;DHT22;42229;51.230;6.240;2023-01-08T12:11:26;14.20;99.90
27647;DHT22;42229;51.230;6.240;2023-01-08T12:14:17;14.50;99.90
27647;DHT22;42229;51.230;6.240;2023-01-08T12:16:47;14.60;99.90
27647;DHT22;42229;51.230;6.240;2023-01-08T12:22:08;14.80;99.90
27647;DHT22;42229;51.230;6.240;2023-01-08T12:30:25;15.00;99.90
27647;DHT22;42229;51.230;6.240;2023-01-08T12:35:43;15.30;99.90
27647;DHT22;42229;51.230;6.240;2023-01-08T12:38:16;15.50;99.90
27647;DHT22;42229;51.230;6.240;2023-01-08T12:40:54;15.60;99.90
27647;DHT22;42229;51.230;6.240;2023-01-08T12:46:23;15.90;99.90
27647;DHT22;42229;51.230;6.240;2023-01-08T12:48:51;16.10;99.90
27647;DHT22;42229;51.230;6.240;2023-01-08T12:51:25;16.20;99.90
27647;DHT22;42229;51.230;6.240;2023-01-08T12:54:02;16.30;99.90
27647;DHT22;42229;51.230;6.240;2023-01-08T12:56:52;16.50;99.90
27647;DHT22;42229;51.230;6.240;2023-01-08T13:05:40;16.90;99.90
27647;DHT22;42229;51.230;6.240;2023-01-08T13:08:30;16.90;99.90
27647;DHT22;42229;51.230;6.240;2023-01-08T13:10:59;16.70;99.90
27647;DHT22;42229;51.230;6.240;2023-01-08T13:13:27;16.40;99.60
27647;DHT22;42229;51.230;6.240;2023-01-08T13:21:17;15.50;99.90
27647;DHT22;42229;51.230;6.240;2023-01-08T13:23:46;15.30;99.90
27647;DHT22;42229;51.230;6.240;2023-01-08T13:26:28;15.20;99.90
27647;DHT22;42229;51.230;6.240;2023-01-08T13:29:05;15.00;99.90
27647;DHT22;42229;51.230;6.240;2023-01-08T13:31:38;14.90;99.90
27647;DHT22;42229;51.230;6.240;2023-01-08T13:34:19;14.80;99.90
27647;DHT22;42229;51.230;6.240;2023-01-08T13:37:05;14.60;99.90
27647;DHT22;42229;51.230;6.240;2023-01-08T13:39:35;14.50;99.90
27647;DHT22;42229;51.230;6.240;2023-01-08T13:44:55;14.70;99.90
27647;DHT22;42229;51.230;6.240;2023-01-08T13:47:42;14.70;99.90
27647;DHT22;42229;51.230;6.240;2023-01-08T13:50:16;14.80;99.90
27647;DHT22;42229;51.230;6.240;2023-01-08T13:58:17;15.30;99.90
27647;DHT22;42229;51.230;6.240;2023-01-08T14:05:47;15.70;99.90
27647;DHT22;42229;51.230;6.240;2023-01-08T14:08:20;15.80;99.90
27647;DHT22;42229;51.230;6.240;2023-01-08T14:10:50;15.80;99.90
27647;DHT22;42229;51.230;6.240;2023-01-08T14:13:25;15.90;99.90
27647;DHT22;42229;51.230;6.240;2023-01-08T14:15:54;15.90;99.90
27647;DHT22;42229;51.230;6.240;2023-01-08T14:18:23;15.80;99.90
27647;DHT22;42229;51.230;6.240;2023-01-08T14:20:50;15.60;99.30
27647;DHT22;42229;51.230;6.240;2023-01-08T14:23:18;15.40;99.20
27647;DHT22;42229;51.230;6.240;2023-01-08T14:25:47;15.20;99.00
27647;DHT22;42229;51.230;6.240;2023-01-08T14:28:15;14.90;98.70
27647;DHT22;42229;51.230;6.240;2023-01-08T14:30:51;14.70;99.40
27647;DHT22;42229;51.230;6.240;2023-01-08T14:33:19;14.40;99.90
27647;DHT22;42229;51.230;6.240;2023-01-08T14:35:49;14.10;99.90
27647;DHT22;42229;51.230;6.240;2023-01-08T14:38:16;14.00;99.90
27647;DHT22;42229;51.230;6.240;2023-01-08T14:40:48;13.80;99.90
27647;DHT22;42229;51.230;6.240;2023-01-08T14:43:16;13.70;99.90
27647;DHT22;42229;51.230;6.240;2023-01-08T14:45:48;13.60;99.90
27647;DHT22;42229;51.230;6.240;2023-01-08T14:48:31;13.50;99.90
27647;DHT22;42229;51.230;6.240;2023-01-08T14:51:06;13.40;99.90
27647;DHT22;42229;51.230;6.240;2023-01-08T14:53:34;13.30;99.90
27647;DHT22;42229;51.230;6.240;2023-01-08T14:56:02;13.20;99.90
27647;DHT22;42229;51.230;6.240;2023-01-08T14:58:34;13.20;99.90
27647;DHT22;42229;51.230;6.240;2023-01-08T15:01:16;13.00;99.90
27647;DHT22;42229;51.230;6.240;2023-01-08T15:03:44;12.90;99.90
27647;DHT22;42229;51.230;6.240;2023-01-08T15:06:11;12.80;99.90
27647;DHT22;42229;51.230;6.240;2023-01-08T15:08:48;12.70;99.90
27647;DHT22;42229;51.230;6.240;2023-01-08T15:13:44;12.60;99.90
27647;DHT22;42229;51.230;6.240;2023-01-08T15:16:26;12.60;99.90
27647;DHT22;42229;51.230;6.240;2023-01-08T15:21:45;12.50;99.90
27647;DHT22;42229;51.230;6.240;2023-01-08T15:24:22;12.40;99.90
27647;DHT22;42229;51.230;6.240;2023-01-08T15:26:51;12.40;99.90
27647;DHT22;42229;51.230;6.240;2023-01-08T15:29:18;12.30;99.90
27647;DHT22;42229;51.230;6.240;2023-01-08T15:31:48;12.30;99.90
27647;DHT22;42229;51.230;6.240;2023-01-08T15:34:15;12.20;99.90
27647;DHT22;42229;51.230;6.240;2023-01-08T15:36:44;12.20;99.90
27647;DHT22;42229;51.230;6.240;2023-01-08T15:39:11;12.10;99.90
27647;DHT22;42229;51.230;6.240;2023-01-08T15:41:38;12.00;99.90
27647;DHT22;42229;51.230;6.240;2023-01-08T15:44:23;12.00;99.90
27647;DHT22;42229;51.230;6.240;2023-01-08T15:46:50;11.90;99.90
27647;DHT22;42229;51.230;6.240;2023-01-08T15:49:16;11.90;99.90
27647;DHT22;42229;51.230;6.240;2023-01-08T15:51:44;11.80;99.90
27647;DHT22;42229;51.230;6.240;2023-01-08T15:54:14;11.80;99.90
27647;DHT22;42229;51.230;6.240;2023-01-08T15:56:41;11.90;99.90
27647;DHT22;42229;51.230;6.240;2023-01-08T15:59:07;11.80;99.90
27647;DHT22;42229;51.230;6.240;2023-01-08T16:01:33;11.70;99.90
27647;DHT22;42229;51.230;6.240;2023-01-08T16:03:59;11.80;99.90
27647;DHT22;42229;51.230;6.240;2023-01-08T16:06:26;11.80;99.90
27647;DHT22;42229;51.230;6.240;2023-01-08T16:08:52;11.80;99.90
27647;DHT22;42229;51.230;6.240;2023-01-08T16:11:18;11.80;99.90
27647;DHT22;42229;51.230;6.240;2023-01-08T16:13:45;11.70;99.90
27647;DHT22;42229;51.230;6.240;2023-01-08T16:16:13;11.80;99.90
27647;DHT22;42229;51.230;6.240;2023-01-08T16:18:40;11.70;99.90
27647;DHT22;42229;51.230;6.240;2023-01-08T16:21:07;11.70;99.90
27647;DHT22;42229;51.230;6.240;2023-01-08T16:23:34;11.70;99.90
27647;DHT22;42229;51.230;6.240;2023-01-08T16:26:08;11.60;99.90
27647;DHT22;42229;51.230;6.240;2023-01-08T16:28:36;11.50;99.90
27647;DHT22;42229;51.230;6.240;2023-01-08T16:31:02;11.50;99.90
27647;DHT22;42229;51.230;6.240;2023-01-08T16:33:29;11.40;99.90
27647;DHT22;42229;51.230;6.240;2023-01-08T16:35:59;11.40;99.90
27647;DHT22;42229;51.230;6.240;2023-01-08T16:38:29;11.30;99.90
27647;DHT22;42229;51.230;6.240;2023-01-08T16:40:56;11.20;99.90
27647;DHT22;42229;51.230;6.240;2023-01-08T16:43:26;11.20;99.90
27647;DHT22;42229;51.230;6.240;2023-01-08T16:45:54;11.10;99.90
27647;DHT22;42229;51.230;6.240;2023-01-08T16:48:22;11.00;99.90
27647;DHT22;42229;51.230;6.240;2023-01-08T16:50:48;11.00;99.90
27647;DHT22;42229;51.230;6.240;2023-01-08T16:53:14;10.90;99.90
27647;DHT22;42229;51.230;6.240;2023-01-08T16:55:42;10.90;99.90
27647;DHT22;42229;51.230;6.240;2023-01-08T16:58:08;10.80;99.90
27647;DHT22;42229;51.230;6.240;2023-01-08T17:00:35;10.70;99.90
27647;DHT22;42229;51.230;6.240;2023-01-08T17:03:02;10.70;99.90
27647;DHT22;42229;51.230;6.240;2023-01-08T17:05:29;10.70;99.90